D/T METAR WX W/SPE G/SPE TEMP DEWP FEEL
25/05/22 00:50 EGQS 242350Z 23007KT CAVOK 10/07 Q1000 RMK BLU 8.1mph 10°C 7°C 10.0°C
24/05/22 23:50 EGQS 242250Z 22007KT 9999 FEW038 BKN048 BKN160 10/08 Q1001 RMK BLU 8.1mph 10°C 8°C 10.4°C
24/05/22 22:50 EGQS 242150Z 21006KT 9999 SCT035 BKN070 10/09 Q1001 RMK BLU 6.9mph 10°C 9°C 10.8°C
24/05/22 21:50 EGQS 242050Z 15006KT 9999 SCT040 BKN060 11/09 Q1001 NOSIG RMK BLU BLU 6.9mph 11°C 9°C 11.8°C
24/05/22 21:20 EGQS 242020Z 13005KT 9999 -SHRA SCT035 BKN060 11/08 Q1001 NOSIG RMK BLU BLU -SHRA 5.8mph 11°C 8°C 11.4°C
24/05/22 20:50 EGQS 241950Z 12005KT 9999 -SHRA FEW040 BKN042 BKN050 11/07 Q1001 NOSIG RMK BLU BLU -SHRA 5.8mph 11°C 7°C 11.0°C
24/05/22 20:20 EGQS 241920Z 11003KT 9999 -SHRA FEW032 SCT045 BKN055 12/05 Q1001 NOSIG RMK BLU BLU -SHRA 3.5mph 12°C 5°C 11.3°C
24/05/22 19:50 EGQS 241850Z 09006KT 9999 VCSH FEW030 BKN055 13/05 Q1001 TEMPO 7000 SHRA SCT018 RMK BLU TEMPO WHT VCSH 6.9mph 13°C 5°C 12.3°C
24/05/22 19:20 EGQS 241820Z 10006KT 9999 FEW030 13/05 Q1001 TEMPO 7000 SHRA RMK BLU TEMPO WHT 6.9mph 13°C 5°C 12.3°C
24/05/22 18:50 EGQS 241750Z 10007KT 9999 FEW030 13/05 Q1000 NOSIG RMK BLU BLU 8.1mph 13°C 5°C 12.3°C
24/05/22 18:20 EGQS 241720Z 05007KT 9999 FEW030 BKN055 13/05 Q1001 NOSIG RMK BLU BLU 8.1mph 13°C 5°C 12.3°C
24/05/22 17:50 EGQS 241650Z 04007KT 9999 FEW030 SCT060 13/06 Q1001 NOSIG RMK BLU BLU 8.1mph 13°C 6°C 12.6°C
24/05/22 17:20 EGQS 241620Z 04008KT 9999 FEW030 13/08 Q1001 NOSIG RMK BLU BLU 9.2mph 13°C 8°C 13.4°C
24/05/22 16:50 EGQS 241550Z 02007KT 9999 FEW030 13/06 Q1001 NOSIG RMK BLU BLU 8.1mph 13°C 6°C 12.6°C
24/05/22 16:20 EGQS 241520Z 35004KT 9999 FEW032 14/06 Q1001 NOSIG RMK BLU BLU 4.6mph 14°C 6°C 13.6°C
24/05/22 15:50 EGQS 241450Z 33004KT 9999 FEW032 SCT060 14/05 Q1001 NOSIG RMK BLU BLU 4.6mph 14°C 5°C 13.3°C
24/05/22 15:20 EGQS 241420Z 35005KT 9999 VCSH FEW030 SCT060 14/06 Q1001 TEMPO 7000 SHRA RMK BLU TEMPO WHT VCSH 5.8mph 14°C 6°C 13.6°C
24/05/22 14:50 EGQS 241350Z 35005KT 9999 FEW030 SCT060 13/05 Q1001 TEMPO 7000 SHRA RMK BLU TEMPO WHT 5.8mph 13°C 5°C 12.3°C
24/05/22 14:20 EGQS 241320Z 33006KT 9999 FEW030 SCT060 13/05 Q1001 TEMPO 7000 SHRA SCT020 RMK BLU TEMPO WHT 6.9mph 13°C 5°C 12.3°C
24/05/22 13:50 EGQS 241250Z 32006KT 9999 VCSH FEW030 13/05 Q1001 TEMPO 7000 SHRA SCT020 RMK BLU TEMPO WHT VCSH 6.9mph 13°C 5°C 12.3°C
24/05/22 13:20 EGQS 241220Z 30007KT 9999 FEW030 13/04 Q1000 TEMPO 7000 SHRA SCT020 RMK BLU TEMPO WHT 8.1mph 13°C 4°C 12.0°C
24/05/22 12:50 EGQS 241150Z 31008KT 9999 SCT030 12/05 Q1000 TEMPO 7000 SHRA SCT020 RMK BLU TEMPO WHT 9.2mph 12°C 5°C 11.3°C
24/05/22 12:22 EGQS 241122Z 33007KT 9999 FEW020 SCT050 12/06 Q1000 TEMPO 7000 SHRA SCT020 RMK BLU TEMPO WHT 8.1mph 12°C 6°C 11.6°C
24/05/22 11:50 EGQS 241050Z 34009KT 9999 FEW018 SCT060 12/07 Q1000 TEMPO 7000 SHRA SCT018 RMK BLU TEMPO WHT 10.4mph 12°C 7°C 12.0°C
24/05/22 11:20 EGQS 241020Z 31009KT 9999 SCT018 12/08 Q1000 TEMPO 7000 SHRA RMK WHT TEMPO WHT 10.4mph 12°C 8°C 12.4°C
24/05/22 10:50 EGQS 240950Z 29009KT 9999 SCT016 12/07 Q1000 TEMPO 7000 SHRA RMK WHT TEMPO WHT 10.4mph 12°C 7°C 12.0°C
24/05/22 10:20 EGQS 240920Z 28010KT 9999 FEW015 SCT060 12/08 Q1000 TEMPO 7000 SHRA SCT015 RMK BLU TEMPO WHT 11.5mph 12°C 8°C 12.4°C
24/05/22 09:50 EGQS 240850Z 29009KT 9999 FEW018 BKN060 11/08 Q1000 TEMPO 7000 SHRA SCT018 RMK BLU TEMPO WHT 10.4mph 11°C 8°C 11.4°C
24/05/22 09:20 EGQS 240820Z 30009KT 9999 FEW016 BKN060 11/07 Q1000 TEMPO 7000 SHRA SCT015 RMK BLU TEMPO WHT 10.4mph 11°C 7°C 11.0°C
24/05/22 08:50 EGQS 240750Z 31009KT 9999 FEW016 BKN060 11/08 Q1000 TEMPO 7000 SHRA SCT015 RMK BLU TEMPO WHT 10.4mph 11°C 8°C 11.4°C
24/05/22 08:20 EGQS 240720Z 33009KT 9999 FEW015 BKN060 11/07 Q1000 TEMPO 7000 SHRA SCT015 RMK BLU TEMPO WHT 10.4mph 11°C 7°C 11.0°C
24/05/22 07:50 EGQS 240650Z 30008KT 9999 FEW015 BKN060 11/08 Q1000 RMK BLU 9.2mph 11°C 8°C 11.4°C
24/05/22 06:50 EGQS 240550Z 29008KT 9999 FEW015 SCT060 10/08 Q0999 RMK BLU 9.2mph 10°C 8°C 10.4°C
24/05/22 05:50 EGQS 240450Z 29006KT 9999 FEW016 BKN060 10/08 Q0999 RMK BLU 6.9mph 10°C 8°C 10.4°C
24/05/22 04:50 EGQS 240350Z 32005KT 9999 FEW008 SCT030 BKN060 09/07 Q0999 RMK BLU 5.8mph 9°C 7°C 9.0°C
24/05/22 03:50 EGQS 240250Z 26003KT 9999 SCT008 BKN032 09/08 Q0999 RMK GRN 3.5mph 9°C 8°C 9.4°C
24/05/22 02:50 EGQS 240150Z 25004KT 9999 FEW012 BKN030 09/08 Q0999 RMK BLU 4.6mph 9°C 8°C 9.4°C
24/05/22 01:50 EGQS 240050Z 24004KT 9999 SCT014 BKN020 BKN035 09/08 Q0999 RMK GRN 4.6mph 9°C 8°C 9.4°C
24/05/22 00:50 EGQS 232350Z 00000KT 9999 -SHRA FEW012 BKN020 BKN050 09/08 Q0999 RMK WHT -SHRA 9°C 8°C 9.4°C
23/05/22 23:50 EGQS 232250Z 02002KT 9999 FEW012 SCT025 BKN045 09/07 Q0999 RMK BLU 2.3mph 9°C 7°C 9.0°C
23/05/22 22:50 EGQS 232150Z 03005KT 9999 FEW015 SCT025 BKN045 10/07 Q0999 NOSIG RMK BLU BLU 5.8mph 10°C 7°C 10.0°C
23/05/22 22:30 EGQS 232130Z 03004KT 9999 FEW012 SCT024 BKN045 10/08 Q0999 TEMPO FEW024 RMK WHT TEMPO BLU 4.6mph 10°C 8°C 10.4°C
23/05/22 21:50 EGQS 232050Z 04005KT 9999 FEW010 BKN027 BKN042 10/08 Q0999 NOSIG RMK BLU BLU 5.8mph 10°C 8°C 10.4°C
23/05/22 20:50 EGQS 231950Z 02005KT 9999 SCT009 SCT024 BKN055 10/08 Q0999 TEMPO 7000 -RADZ RMK GRN TEMPO GRN 5.8mph 10°C 8°C 10.4°C
23/05/22 19:50 EGQS 231850Z 36005KT 9999 SCT008 BKN025 10/09 Q0999 TEMPO 7000 -RADZ RMK GRN TEMPO GRN 5.8mph 10°C 9°C 10.8°C
23/05/22 19:20 EGQS 231820Z 35004KT 9999 BKN007 OVC011 10/09 Q0999 TEMPO 7000 -RADZ RMK GRN TEMPO WHT 4.6mph 10°C 9°C 10.8°C
23/05/22 18:50 EGQS 231750Z 01006KT 9999 SCT007 OVC015 10/09 Q0999 TEMPO 7000 -RADZ RMK GRN TEMPO WHT 6.9mph 10°C 9°C 10.8°C
23/05/22 18:20 EGQS 231720Z 36007KT 9999 -RA SCT007 SCT010 OVC060 10/09 Q0999 TEMPO 7000 -RADZ RMK GRN TEMPO WHT -RA 8.1mph 10°C 9°C 10.8°C
23/05/22 17:50 EGQS 231650Z 36008KT 9999 SCT007 OVC060 10/09 Q0999 TEMPO 7000 -RADZ RMK GRN TEMPO WHT 9.2mph 10°C 9°C 10.8°C
23/05/22 17:36 EGQS 231636Z 36007KT 9999 -RA SCT008 BKN025 OVC055 10/09 Q0999 TEMPO 4000 RADZ SCT006 RMK GRN TEMPO YLO1 -RA 8.1mph 10°C 9°C 10.8°C
23/05/22 17:05 EGQS 231605Z 01010KT 7000 -RA FEW006 BKN027 OVC055 10/09 Q0998 TEMPO 4000 RADZ RMK WHT TEMPO GRN -RA 11.5mph 10°C 9°C 10.8°C
23/05/22 16:43 EGQS 231543Z 36011KT 6000 RA SCT005 OVC030 10/09 Q0998 TEMPO 4000 RADZ RMK YLO1 TEMPO GRN RA 12.7mph 10°C 9°C 10.8°C
23/05/22 15:50 EGQS 231450Z 36011KT 3500 RADZ FEW004 OVC010 10/09 Q0998 TEMPO 7000 -RADZ RMK YLO1 TEMPO GRN RA DZ 12.7mph 10°C 9°C 10.8°C
23/05/22 15:43 EGQS 231443Z 36011KT 3500 RADZ FEW004 OVC012 10/09 Q0998 TEMPO 7000 -RADZ RMK YLO1 TEMPO GRN RA DZ 12.7mph 10°C 9°C 10.8°C
23/05/22 15:06 EGQS 231406Z 03007KT 4000 +RA SCT006 OVC015 11/10 Q0998 TEMPO 7000 -RA BKN010 RMK YLO1 TEMPO GRN +RA 8.1mph 11°C 10°C 12.3°C
23/05/22 14:20 EGQS 231320Z 03009KT 7000 -SHRA BKN010 BKN020 11/10 Q0998 TEMPO 4000 SHRA RMK GRN TEMPO GRN -SHRA 10.4mph 11°C 10°C 12.3°C
23/05/22 13:50 EGQS 231250Z 03010KT 9999 FEW006 BKN010 BKN020 11/10 Q0998 TEMPO 7000 SHRA BKN006 RMK YLO1 TEMPO GRN 11.5mph 11°C 10°C 12.3°C
23/05/22 13:20 EGQS 231220Z 05010KT 9999 -SHRA BKN006 OVC020 11/10 Q0998 TEMPO 7000 SHRA BKN008 RMK YLO1 TEMPO GRN -SHRA 11.5mph 11°C 10°C 12.3°C
23/05/22 12:50 EGQS 231150Z 04009KT 9999 -RA BKN007 BKN020 11/10 Q0998 TEMPO 6000 -RADZ RMK GRN TEMPO GRN -RA 10.4mph 11°C 10°C 12.3°C
23/05/22 12:20 EGQS 231120Z 04009KT 9999 -RA BKN007 BKN020 11/10 Q0998 TEMPO 6000 -RADZ BKN007 RMK GRN TEMPO GRN -RA 10.4mph 11°C 10°C 12.3°C
23/05/22 11:50 EGQS 231050Z 04008KT 7000 -SHRA BKN007 OVC050 11/10 Q0998 TEMPO 7000 SHRA SCT006 RMK GRN TEMPO YLO1 -SHRA 9.2mph 11°C 10°C 12.3°C
23/05/22 11:20 EGQS 231020Z 03007KT 9999 -SHRA BKN007 OVC050 11/09 Q0998 TEMPO 7000 SHRA SCT006 RMK GRN TEMPO YLO1 -SHRA 8.1mph 11°C 9°C 11.8°C
23/05/22 10:50 EGQS 230950Z 04008KT 9999 SCT007 BKN060 12/10 Q0998 TEMPO 7000 SHRA RMK GRN TEMPO WHT 9.2mph 12°C 10°C 13.3°C
23/05/22 10:20 EGQS 230920Z 04008KT 9999 SCT007 BKN050 12/10 Q0998 TEMPO 7000 SHRA RMK GRN TEMPO WHT 9.2mph 12°C 10°C 13.3°C
23/05/22 09:50 EGQS 230850Z 05009KT 9999 SCT007 OVC050 11/09 Q0998 TEMPO 7000 SHRA RMK GRN TEMPO WHT 10.4mph 11°C 9°C 11.8°C
23/05/22 09:20 EGQS 230820Z 05009KT 9999 SCT007 BKN050 11/10 Q0998 TEMPO 7000 SHRA RMK GRN TEMPO WHT 10.4mph 11°C 10°C 12.3°C
23/05/22 08:50 EGQS 230750Z 03006KT 9999 FEW007 BKN045 11/10 Q0998 TEMPO 7000 SHRA SCT020 RMK BLU TEMPO WHT 6.9mph 11°C 10°C 12.3°C
23/05/22 08:20 EGQS 230720Z 32004KT 9999 FEW010 BKN039 11/09 Q0998 TEMPO 7000 SHRA SCT020 RMK BLU TEMPO WHT 4.6mph 11°C 9°C 11.8°C
23/05/22 07:50 EGQS 230650Z 28007KT 9999 FEW025 BKN060 12/09 Q0998 NOSIG RMK BLU BLU 8.1mph 12°C 9°C 12.8°C
23/05/22 06:50 EGQS 230550Z 30005KT 9999 FEW023 BKN070 11/09 Q0998 NOSIG RMK BLU BLU 5.8mph 11°C 9°C 11.8°C
23/05/22 05:50 EGQS 230450Z 23005KT 9999 FEW040 BKN060 09/08 Q0998 RMK BLU 5.8mph 9°C 8°C 9.4°C
23/05/22 04:50 EGQS 230350Z 24004KT 9999 SCT045 BKN060 08/07 Q0998 RMK BLU 4.6mph 8°C 7°C 8.0°C
23/05/22 03:50 EGQS 230250Z 17005KT 9999 FEW045 07/06 Q0999 RMK BLU 5.8mph 7°C 6°C 6.6°C
23/05/22 02:50 EGQS 230150Z 22005KT 9999 FEW045 08/07 Q0999 RMK BLU 5.8mph 8°C 7°C 8.0°C
23/05/22 01:50 EGQS 230050Z 22006KT 9999 FEW045 SCT060 09/08 Q0999 RMK BLU 6.9mph 9°C 8°C 9.4°C
23/05/22 00:50 EGQS 222350Z 21007KT 9999 -RA BKN060 11/09 Q0999 RESHRA RMK BLU -RA 8.1mph 11°C 9°C 11.8°C
22/05/22 23:50 EGQS 222250Z 24008KT 9999 -SHRA FEW020 BKN050 11/10 Q0999 RESHRA RMK BLU -SHRA 9.2mph 11°C 10°C 12.3°C
22/05/22 22:50 EGQS 222150Z 27013KT 6000 -SHRA FEW010 SCT022 BKN050 12/10 Q0999 RMK WHT -SHRA 15.0mph 12°C 10°C 13.3°C
22/05/22 21:50 EGQS 222050Z 26011KT 9999 FEW035 SCT045 BKN080 14/09 Q0999 RMK BLU 12.7mph 14°C 9°C 14.8°C
22/05/22 20:50 EGQS 221950Z 25010KT 9999 FEW035 BKN050 15/10 Q0999 RMK BLU 11.5mph 15°C 10°C 16.3°C
22/05/22 19:50 EGQS 221850Z 24006KT 9999 FEW035 BKN060 15/10 Q0999 RMK BLU 6.9mph 15°C 10°C 16.3°C
22/05/22 18:50 EGQS 221750Z 27009KT 9999 FEW035 BKN060 16/12 Q1000 TEMPO 7000 SHRA SCT020 RMK BLU TEMPO WHT 10.4mph 16°C 12°C 18.3°C
22/05/22 17:50 EGQS 221650Z 29008KT 9999 VCSH FEW037 BKN040 15/11 Q1000 TEMPO 7000 SHRA SCT020 RMK BLU TEMPO WHT VCSH 9.2mph 15°C 11°C 16.8°C
22/05/22 17:45 EGQS 221645Z 29008KT 9999 VCSH FEW037 BKN040 15/11 Q1000 TEMPO 7000 SHRA SCT020 RMK BLU TEMPO WHT VCSH 9.2mph 15°C 11°C 16.8°C
22/05/22 16:50 EGQS 221550Z 29010KT 9999 VCSH FEW030 BKN040 16/11 Q1001 TEMPO 7000 SHRA SCT020 RMK BLU TEMPO WHT VCSH 11.5mph 16°C 11°C 17.8°C
22/05/22 16:20 EGQS 221520Z 31010KT 9999 FEW030 SCT040 17/11 Q1001 TEMPO 7000 SHRA SCT020 RMK BLU TEMPO WHT 11.5mph 17°C 11°C 18.8°C
22/05/22 15:50 EGQS 221450Z 22010KT 9999 FEW037 SCT140 18/10 Q1001 TEMPO 7000 SHRA SCT020 RMK BLU TEMPO WHT 11.5mph 18°C 10°C 19.3°C
22/05/22 15:20 EGQS 221420Z 22013KT 9999 FEW035 BKN140 19/11 Q1001 TEMPO 7000 SHRA SCT020 RMK BLU TEMPO WHT 15.0mph 19°C 11°C 20.8°C
22/05/22 14:50 EGQS 221350Z 21012KT 9999 FEW035 SCT100 BKN150 17/11 Q1002 TEMPO 7000 SHRA SCT020 RMK BLU TEMPO WHT 13.8mph 17°C 11°C 18.8°C
22/05/22 13:50 EGQS 221250Z 22016KT 9999 FEW030 OVC100 17/09 Q1002 TEMPO 7000 SHRA SCT020 RMK BLU TEMPO WHT 18.4mph 17°C 9°C 17.8°C
22/05/22 12:50 EGQS 221150Z 21009KT 9999 SCT030 BKN070 17/10 Q1003 TEMPO 7000 SHRA SCT020 RMK BLU TEMPO WHT 10.4mph 17°C 10°C 18.3°C
22/05/22 11:50 EGQS 221050Z 21010KT 9999 SCT032 SCT045 BKN075 16/10 Q1003 TEMPO 7000 SHRA SCT020 RMK BLU TEMPO WHT 11.5mph 16°C 10°C 17.3°C
22/05/22 11:20 EGQS 221020Z 21012KT 9999 FEW030 BKN045 17/10 Q1004 TEMPO 7000 SHRA SCT020 RMK BLU TEMPO WHT 13.8mph 17°C 10°C 18.3°C
22/05/22 10:50 EGQS 220950Z 22011KT 9999 FEW030 BKN045 16/10 Q1004 NOSIG RMK BLU BLU 12.7mph 16°C 10°C 17.3°C
22/05/22 09:50 EGQS 220850Z 22010KT 9999 FEW028 BKN060 OVC110 16/11 Q1004 NOSIG RMK BLU BLU 11.5mph 16°C 11°C 17.8°C
22/05/22 09:20 EGQS 220820Z 21007KT 9999 FEW027 SCT060 BKN080 16/11 Q1005 NOSIG RMK BLU BLU 8.1mph 16°C 11°C 17.8°C